Time;durP1;ratioP1;P1;durP2;ratioP2;P2;SDS_P1;SDS_P2;PMS_P1;PMS_P2;Temp;Humidity;BMP_temperature;BMP_pressure;BME280_temperature;BME280_humidity;BME280_pressure;Samples;Min_cycle;Max_cycle;Signal;HPM_P1;HPM_P2
2021/12/19 00:00:09;;;;;;;143.13;24.10;;;6.20;99.90;;;;;;4148097;28;20175;-89
2021/12/19 00:02:25;;;;;;;136.90;25.37;;;6.30;99.90;;;;;;4148185;28;20263;-89
2021/12/19 00:10:47;;;;;;;126.63;23.97;;;6.20;99.90;;;;;;4164339;28;20533;-89
2021/12/19 00:12:48;;;;;;;124.53;23.93;;;6.20;99.90;;;;;;4149129;28;20664;-89
2021/12/19 00:14:49;;;;;;;125.47;24.73;;;6.20;99.90;;;;;;4151001;28;20645;-89
2021/12/19 00:16:51;;;;;;;112.73;24.00;;;6.30;99.90;;;;;;4183810;28;20178;-89
2021/12/19 00:18:52;;;;;;;98.73;22.20;;;6.40;99.90;;;;;;4167452;28;20169;-89
2021/12/19 00:20:53;;;;;;;115.93;23.77;;;6.60;99.90;;;;;;4151368;28;20209;-90
2021/12/19 00:22:54;;;;;;;111.60;23.73;;;6.60;99.90;;;;;;4151177;28;20184;-90
2021/12/19 00:24:54;;;;;;;132.63;24.87;;;6.70;99.90;;;;;;4150984;28;20193;-90
2021/12/19 00:26:55;;;;;;;97.60;22.00;;;6.70;99.90;;;;;;4150985;28;20184;-90
2021/12/19 00:28:56;;;;;;;87.60;20.00;;;6.70;99.90;;;;;;4151061;28;20179;-89
2021/12/19 00:30:56;;;;;;;88.80;21.50;;;6.70;99.90;;;;;;4150813;28;20181;-90
2021/12/19 00:32:58;;;;;;;98.07;22.13;;;6.60;99.90;;;;;;4167275;28;20243;-90
2021/12/19 00:34:58;;;;;;;118.50;23.83;;;6.60;99.90;;;;;;4151026;28;20231;-89
2021/12/19 00:36:59;;;;;;;124.30;22.50;;;6.60;99.90;;;;;;4167442;28;20620;-89
2021/12/19 00:39:00;;;;;;;141.03;26.00;;;6.40;99.90;;;;;;4167083;28;20165;-89
2021/12/19 00:41:00;;;;;;;116.10;21.93;;;6.50;99.90;;;;;;4167128;28;20216;-89
2021/12/19 00:43:07;;;;;;;165.83;26.17;;;6.50;99.90;;;;;;4150763;28;20181;-90
2021/12/19 00:45:27;;;;;;;163.13;25.53;;;6.40;99.90;;;;;;4150412;28;20203;-89
2021/12/19 00:47:29;;;;;;;164.27;24.23;;;6.70;99.90;;;;;;4166821;28;20275;-89
2021/12/19 00:49:31;;;;;;;200.67;25.80;;;7.10;99.90;;;;;;4167219;28;20179;-90
2021/12/19 00:51:31;;;;;;;178.13;25.00;;;7.40;99.90;;;;;;4167085;28;20204;-90
2021/12/19 00:53:33;;;;;;;225.87;26.23;;;7.50;99.90;;;;;;4167166;28;20244;-89
2021/12/19 00:55:35;;;;;;;240.97;27.73;;;7.60;99.90;;;;;;4150460;28;20549;-89
2021/12/19 00:57:36;;;;;;;180.80;24.97;;;7.70;99.90;;;;;;4150589;28;20172;-89
2021/12/19 00:59:36;;;;;;;235.20;28.47;;;7.60;99.90;;;;;;4166715;28;20627;-89
2021/12/19 01:01:38;;;;;;;237.43;26.80;;;7.50;99.90;;;;;;4150354;28;20165;-90
2021/12/19 01:03:46;;;;;;;242.13;26.77;;;7.40;99.90;;;;;;4167002;28;20187;-90
2021/12/19 01:05:47;;;;;;;286.50;28.63;;;7.30;99.90;;;;;;4166804;28;20196;-89
2021/12/19 01:07:48;;;;;;;290.33;28.67;;;7.30;99.90;;;;;;4150358;28;20604;-90
2021/12/19 01:09:48;;;;;;;279.33;27.33;;;7.40;99.90;;;;;;4150563;28;20176;-90
2021/12/19 01:11:49;;;;;;;260.27;26.90;;;7.50;99.90;;;;;;4166279;28;20220;-90
2021/12/19 01:13:51;;;;;;;305.37;30.83;;;7.50;99.90;;;;;;4150146;28;20177;-90
2021/12/19 01:15:53;;;;;;;187.00;25.90;;;7.60;99.90;;;;;;4166457;28;20258;-89
2021/12/19 01:17:54;;;;;;;168.07;24.37;;;7.60;99.90;;;;;;4166620;28;20176;-90
2021/12/19 01:19:55;;;;;;;236.60;27.43;;;7.50;99.90;;;;;;4166669;28;20183;-89
2021/12/19 01:21:55;;;;;;;245.43;27.97;;;7.40;99.90;;;;;;4166743;28;20595;-90
2021/12/19 01:23:56;;;;;;;277.80;28.87;;;7.20;99.90;;;;;;4149313;28;20180;-90
2021/12/19 01:25:57;;;;;;;322.57;31.13;;;7.20;99.90;;;;;;4166082;28;20298;-90
2021/12/19 01:27:57;;;;;;;283.17;28.90;;;7.20;99.90;;;;;;4150103;28;20177;-89
2021/12/19 01:29:58;;;;;;;330.57;29.20;;;7.30;99.90;;;;;;4149976;28;20173;-89
2021/12/19 01:32:01;;;;;;;255.77;28.37;;;7.50;99.90;;;;;;4149899;28;20220;-89
2021/12/19 01:34:01;;;;;;;286.30;29.83;;;7.70;99.90;;;;;;4150107;28;20794;-90
2021/12/19 01:36:03;;;;;;;335.80;30.60;;;7.80;99.90;;;;;;4166060;28;20282;-89
2021/12/19 01:38:04;;;;;;;299.67;29.70;;;7.80;99.90;;;;;;4150018;28;20162;-89
2021/12/19 01:40:08;;;;;;;367.73;31.83;;;7.90;99.90;;;;;;4149656;28;20199;-89
2021/12/19 01:42:11;;;;;;;337.33;31.67;;;7.90;99.90;;;;;;4149806;28;20631;-91
2021/12/19 01:44:12;;;;;;;374.73;31.17;;;7.90;99.90;;;;;;4149854;28;20185;-89
2021/12/19 01:46:13;;;;;;;417.83;33.93;;;7.90;99.90;;;;;;4149649;28;20301;-89
2021/12/19 01:48:14;;;;;;;371.87;30.80;;;7.90;99.90;;;;;;4149791;28;20239;-89
2021/12/19 01:50:14;;;;;;;402.70;33.67;;;7.90;99.90;;;;;;4149635;28;20172;-90
2021/12/19 01:52:16;;;;;;;355.47;31.93;;;7.90;99.90;;;;;;4165763;28;20204;-89
2021/12/19 01:54:16;;;;;;;399.53;32.77;;;7.90;99.90;;;;;;4165953;28;20216;-90
2021/12/19 01:56:17;;;;;;;274.97;30.47;;;7.90;99.90;;;;;;4149676;28;20196;-89
2021/12/19 01:58:18;;;;;;;456.83;34.83;;;7.80;99.90;;;;;;4165855;28;20199;-89
2021/12/19 02:00:39;;;;;;;499.43;36.13;;;7.90;99.90;;;;;;4149746;28;20169;-89
2021/12/19 02:02:40;;;;;;;207.60;28.10;;;7.80;99.90;;;;;;4165957;28;20164;-90
2021/12/19 02:04:42;;;;;;;219.03;29.33;;;7.70;99.90;;;;;;4165629;28;20192;-90
2021/12/19 02:06:43;;;;;;;129.83;24.97;;;7.40;99.90;;;;;;4149240;28;20251;-89
2021/12/19 02:08:45;;;;;;;135.67;25.27;;;7.30;99.90;;;;;;4149186;28;20235;-89
2021/12/19 02:10:46;;;;;;;105.43;22.97;;;7.30;99.90;;;;;;4149186;28;20188;-89
2021/12/19 02:12:48;;;;;;;93.97;21.77;;;6.80;99.90;;;;;;4165545;28;20616;-89
2021/12/19 02:14:49;;;;;;;93.87;21.10;;;6.50;99.90;;;;;;4149192;28;20193;-89
2021/12/19 02:16:50;;;;;;;104.10;21.03;;;6.30;99.90;;;;;;4165552;28;20199;-89
2021/12/19 02:18:51;;;;;;;95.63;20.13;;;6.70;99.90;;;;;;4149149;28;20173;-89
2021/12/19 02:20:55;;;;;;;96.33;21.10;;;6.70;99.90;;;;;;4165476;28;20233;-89
2021/12/19 02:22:55;;;;;;;86.70;19.57;;;6.50;99.90;;;;;;4149106;28;20518;-91
2021/12/19 02:24:56;;;;;;;73.60;18.50;;;6.50;99.90;;;;;;4148971;28;20203;-90
2021/12/19 02:26:57;;;;;;;80.73;18.53;;;6.30;99.90;;;;;;4148840;28;20176;-91
2021/12/19 02:28:58;;;;;;;83.33;18.80;;;6.20;99.90;;;;;;4149132;28;20165;-89
2021/12/19 02:30:59;;;;;;;88.47;19.30;;;6.30;99.90;;;;;;4149166;28;20204;-90
2021/12/19 02:32:59;;;;;;;79.20;19.87;;;6.60;99.90;;;;;;4149015;28;20208;-90
2021/12/19 02:35:05;;;;;;;70.43;17.93;;;6.50;99.90;;;;;;4148616;28;20687;-89
2021/12/19 02:37:19;;;;;;;79.37;19.27;;;6.40;99.90;;;;;;4165420;28;20363;-90
2021/12/19 02:48:49;;;;;;;110.60;19.53;;;7.00;99.90;;;;;;4165302;28;20206;-89
2021/12/19 02:50:53;;;;;;;122.47;19.60;;;6.80;99.90;;;;;;4165358;28;20172;-90
2021/12/19 02:52:53;;;;;;;114.13;18.20;;;6.60;99.90;;;;;;4149108;28;20405;-89
2021/12/19 02:54:54;;;;;;;102.93;19.23;;;6.50;99.90;;;;;;4148952;28;20204;-90
2021/12/19 02:56:55;;;;;;;77.53;19.23;;;6.40;99.90;;;;;;4148744;28;20188;-89
2021/12/19 02:58:56;;;;;;;80.07;18.20;;;6.50;99.90;;;;;;4165167;28;20187;-90
2021/12/19 03:01:00;;;;;;;99.00;20.30;;;7.00;99.90;;;;;;4164817;28;20168;-90
2021/12/19 03:03:00;;;;;;;131.80;20.77;;;6.80;99.90;;;;;;4148674;28;20249;-90
2021/12/19 03:05:02;;;;;;;103.57;19.83;;;7.20;99.90;;;;;;4148670;28;20197;-89
2021/12/19 03:07:03;;;;;;;155.40;21.97;;;7.50;99.90;;;;;;4148715;28;20220;-89
2021/12/19 03:09:08;;;;;;;125.77;22.03;;;7.90;99.90;;;;;;4164857;28;20164;-89
2021/12/19 03:17:57;;;;;;;159.10;20.83;;;7.70;99.90;;;;;;4164749;28;20192;-90
2021/12/19 03:18:16;;;;;;;212.77;24.67;;;7.90;99.90;;;;;;4164869;28;20513;-89
2021/12/19 03:20:16;;;;;;;148.87;22.07;;;8.20;99.90;;;;;;4165032;28;20180;-89
2021/12/19 03:22:17;;;;;;;176.03;23.97;;;8.40;99.90;;;;;;4148521;28;20176;-89
2021/12/19 03:24:18;;;;;;;199.13;24.50;;;8.20;99.90;;;;;;4148352;28;20177;-89
2021/12/19 03:26:19;;;;;;;133.63;22.97;;;8.30;99.90;;;;;;4164731;28;20635;-89
2021/12/19 03:28:20;;;;;;;154.93;22.73;;;8.20;99.90;;;;;;4148474;28;20206;-91
2021/12/19 03:30:21;;;;;;;158.77;21.53;;;7.70;99.90;;;;;;4164730;28;20173;-90
2021/12/19 03:32:24;;;;;;;164.00;22.03;;;7.70;99.90;;;;;;4148294;28;20342;-90
2021/12/19 03:34:25;;;;;;;130.83;19.73;;;7.70;99.90;;;;;;4164308;28;20184;-89
2021/12/19 03:36:27;;;;;;;239.53;23.37;;;7.60;99.90;;;;;;4148232;28;20214;-90
2021/12/19 03:38:28;;;;;;;168.00;22.33;;;7.80;99.90;;;;;;4164668;28;20163;-89
2021/12/19 03:40:36;;;;;;;406.67;29.30;;;7.80;99.90;;;;;;4148374;28;20577;-90
2021/12/19 03:42:43;;;;;;;146.87;19.60;;;7.70;99.90;;;;;;4148298;28;20169;-89
2021/12/19 03:44:44;;;;;;;97.17;17.67;;;7.60;99.90;;;;;;4148262;28;20214;-89
2021/12/19 03:46:44;;;;;;;180.20;20.10;;;7.30;99.90;;;;;;4148042;28;20189;-89
2021/12/19 03:48:45;;;;;;;153.17;20.27;;;7.20;99.90;;;;;;4151094;28;20183;-90
2021/12/19 03:50:48;;;;;;;319.30;26.93;;;7.00;99.90;;;;;;4151688;28;20168;-89
2021/12/19 03:52:53;;;;;;;364.77;26.00;;;7.40;99.90;;;;;;4167937;28;20211;-90
2021/12/19 03:54:55;;;;;;;194.55;20.90;;;7.80;99.90;;;;;;4167911;28;20180;-89
2021/12/19 03:56:56;;;;;;;153.13;19.30;;;8.10;99.90;;;;;;4167817;28;20636;-90
2021/12/19 03:58:57;;;;;;;313.90;23.73;;;8.10;99.90;;;;;;4167846;28;20187;-90
2021/12/19 04:01:00;;;;;;;435.00;25.60;;;7.90;99.90;;;;;;4151375;28;20267;-89
2021/12/19 04:03:04;;;;;;;339.87;26.00;;;7.90;99.90;;;;;;4151561;28;20185;-91
2021/12/19 04:05:05;;;;;;;283.50;22.43;;;8.20;99.90;;;;;;4167474;28;20584;-89
2021/12/19 04:07:06;;;;;;;375.40;24.93;;;8.00;99.90;;;;;;4151541;28;20183;-90
2021/12/19 04:09:07;;;;;;;237.63;20.90;;;8.00;99.90;;;;;;4167743;28;20180;-89
2021/12/19 04:11:07;;;;;;;247.87;22.37;;;7.70;99.90;;;;;;4167496;28;20214;-91
2021/12/19 04:13:08;;;;;;;217.27;21.07;;;7.30;99.90;;;;;;4151114;28;20200;-90
2021/12/19 04:15:10;;;;;;;91.40;17.80;;;7.40;99.90;;;;;;4151360;28;20191;-89
2021/12/19 04:17:11;;;;;;;129.53;17.83;;;7.70;99.90;;;;;;4151094;28;20184;-90
2021/12/19 04:19:12;;;;;;;132.67;17.37;;;7.50;99.90;;;;;;4167767;28;20172;-89
2021/12/19 04:21:13;;;;;;;155.73;18.03;;;7.50;99.90;;;;;;4151156;28;20529;-90
2021/12/19 04:23:14;;;;;;;179.88;19.27;;;7.50;99.90;;;;;;4151028;28;20172;-90
2021/12/19 04:25:15;;;;;;;137.53;17.43;;;7.40;99.90;;;;;;4167401;28;20244;-89
2021/12/19 04:27:15;;;;;;;132.93;18.57;;;7.70;99.90;;;;;;4151085;28;20181;-89
2021/12/19 04:29:16;;;;;;;185.03;18.27;;;7.50;99.90;;;;;;4150995;28;20181;-89
2021/12/19 04:31:17;;;;;;;159.63;16.90;;;7.50;99.90;;;;;;4150624;28;20216;-89
2021/12/19 04:33:17;;;;;;;219.57;18.47;;;7.40;99.90;;;;;;4150771;28;20208;-91
2021/12/19 04:35:18;;;;;;;179.67;18.37;;;7.80;99.90;;;;;;4150511;28;20185;-89
2021/12/19 04:38:36;;;;;;;206.83;18.37;;;8.10;99.90;;;;;;4167111;28;20996;-90
2021/12/19 04:39:56;;;;;;;218.20;21.17;;;8.20;99.90;;;;;;4158889;28;20199;-89
2021/12/19 04:51:01;;;;;;;98.50;16.87;;;8.80;99.90;;;;;;4166982;28;20183;-90
2021/12/19 04:53:37;;;;;;;115.87;17.27;;;8.50;99.90;;;;;;4167070;28;20188;-90
2021/12/19 05:00:29;;;;;;;93.83;16.80;;;8.40;99.90;;;;;;4166904;28;20206;-89
2021/12/19 05:15:43;;;;;;;114.97;17.67;;;8.90;99.90;;;;;;4166418;28;20700;-88
2021/12/19 05:17:43;;;;;;;142.40;19.33;;;8.90;99.90;;;;;;4150205;28;20173;-89
2021/12/19 05:20:02;;;;;;;117.67;19.20;;;8.80;99.90;;;;;;4150000;28;20192;-89
2021/12/19 05:22:03;;;;;;;149.90;20.57;;;7.90;99.90;;;;;;4150005;28;20173;-89
2021/12/19 05:24:21;;;;;;;97.97;16.83;;;7.50;99.90;;;;;;4166720;28;20510;-89
2021/12/19 05:26:21;;;;;;;125.33;18.30;;;7.40;99.90;;;;;;4150302;28;20180;-89
2021/12/19 05:28:22;;;;;;;88.93;16.47;;;7.30;99.90;;;;;;4166495;28;20382;-89
2021/12/19 05:30:23;;;;;;;93.10;17.00;;;7.20;99.90;;;;;;4150178;28;20181;-89
2021/12/19 05:32:24;;;;;;;142.70;20.67;;;7.30;99.90;;;;;;4150100;28;20546;-91
2021/12/19 05:34:27;;;;;;;133.60;18.53;;;7.40;99.90;;;;;;4149909;28;20176;-89
2021/12/19 05:45:45;;;;;;;91.53;16.93;;;7.30;99.90;;;;;;4166355;28;20603;-89
2021/12/19 05:47:48;;;;;;;72.73;17.27;;;7.80;99.90;;;;;;4150031;28;20231;-89
2021/12/19 05:49:49;;;;;;;74.87;17.27;;;8.00;99.90;;;;;;4149815;28;20215;-89
2021/12/19 05:51:49;;;;;;;92.97;17.93;;;8.10;99.90;;;;;;4149309;28;20291;-89
2021/12/19 05:53:50;;;;;;;105.27;18.60;;;8.30;99.90;;;;;;4149652;28;20173;-89
2021/12/19 05:55:51;;;;;;;105.40;18.67;;;8.50;99.90;;;;;;4149414;28;20197;-89
2021/12/19 05:57:51;;;;;;;111.23;22.03;;;8.60;99.90;;;;;;4149763;28;20173;-89
2021/12/19 05:59:52;;;;;;;109.30;20.33;;;8.50;99.90;;;;;;4149619;28;20230;-89
2021/12/19 06:01:53;;;;;;;134.27;21.17;;;8.70;99.90;;;;;;4149576;28;20176;-90
2021/12/19 06:03:53;;;;;;;141.87;21.53;;;8.30;99.90;;;;;;4165846;28;20222;-90
2021/12/19 06:05:54;;;;;;;138.73;20.70;;;8.40;99.90;;;;;;4165858;28;20546;-90
2021/12/19 06:07:55;;;;;;;106.07;20.07;;;8.20;99.90;;;;;;4149584;28;20183;-90
2021/12/19 06:09:56;;;;;;;124.33;20.50;;;8.20;99.90;;;;;;4149003;28;20649;-90
2021/12/19 06:11:56;;;;;;;138.90;21.60;;;8.10;99.90;;;;;;4149279;28;20236;-89
2021/12/19 06:13:57;;;;;;;129.47;21.43;;;8.10;99.90;;;;;;4149386;28;20188;-89
2021/12/19 06:15:58;;;;;;;128.27;19.80;;;8.00;99.90;;;;;;4165575;28;20627;-90
2021/12/19 06:17:58;;;;;;;132.77;20.63;;;8.40;99.90;;;;;;4149182;28;20203;-90
2021/12/19 06:19:59;;;;;;;135.80;19.53;;;8.30;99.90;;;;;;4149466;28;20177;-90
2021/12/19 06:22:00;;;;;;;177.23;20.93;;;8.80;99.90;;;;;;4165767;28;20223;-89
2021/12/19 06:24:00;;;;;;;189.33;21.57;;;8.90;99.90;;;;;;4149170;28;20207;-89
2021/12/19 06:26:01;;;;;;;177.13;22.67;;;9.00;99.90;;;;;;4149084;28;20196;-89
2021/12/19 06:28:02;;;;;;;159.53;19.87;;;8.90;99.90;;;;;;4149204;28;20546;-89
2021/12/19 06:30:05;;;;;;;187.27;22.07;;;8.80;99.90;;;;;;4149104;28;20178;-90
2021/12/19 06:32:06;;;;;;;189.97;23.13;;;8.90;99.90;;;;;;4149001;28;20688;-90
2021/12/19 06:34:07;;;;;;;222.87;22.53;;;8.50;99.90;;;;;;4165368;28;20172;-89
2021/12/19 06:36:09;;;;;;;219.50;22.57;;;8.50;99.90;;;;;;4148793;28;20200;-90
2021/12/19 06:38:12;;;;;;;193.07;21.67;;;8.50;99.90;;;;;;4148919;28;20173;-89
2021/12/19 06:40:15;;;;;;;252.23;23.20;;;8.70;99.90;;;;;;4165486;28;20220;-89
2021/12/19 06:42:16;;;;;;;287.47;23.23;;;8.60;99.90;;;;;;4165274;28;20271;-89
2021/12/19 06:44:16;;;;;;;361.70;24.27;;;8.80;99.90;;;;;;4165427;28;20663;-90
2021/12/19 06:46:18;;;;;;;193.70;22.33;;;8.90;99.90;;;;;;4148847;28;20379;-90
2021/12/19 06:48:22;;;;;;;331.67;24.40;;;9.00;99.90;;;;;;4165299;28;20234;-90
2021/12/19 06:50:24;;;;;;;146.70;20.27;;;8.80;99.90;;;;;;4165142;28;20192;-89
2021/12/19 06:52:25;;;;;;;304.87;24.27;;;8.30;99.90;;;;;;4165109;28;20314;-89
2021/12/19 06:54:25;;;;;;;341.33;25.43;;;7.90;99.90;;;;;;4165052;28;20302;-89
2021/12/19 06:56:26;;;;;;;514.70;31.00;;;7.90;99.90;;;;;;4148651;28;20518;-90
2021/12/19 06:58:27;;;;;;;535.10;29.20;;;8.30;99.90;;;;;;4148636;28;20665;-89
2021/12/19 07:00:28;;;;;;;459.03;27.63;;;8.70;99.90;;;;;;4148730;28;20267;-89
2021/12/19 07:02:29;;;;;;;344.63;24.00;;;8.50;99.90;;;;;;4148651;28;20181;-90
2021/12/19 07:04:29;;;;;;;381.03;26.03;;;8.60;99.90;;;;;;4148608;28;20311;-90
2021/12/19 07:06:30;;;;;;;210.30;21.03;;;8.70;99.90;;;;;;4148443;28;20643;-89
2021/12/19 07:08:31;;;;;;;177.57;21.23;;;8.40;99.90;;;;;;4164844;28;20176;-89
2021/12/19 07:10:32;;;;;;;210.77;22.00;;;8.00;99.90;;;;;;4164810;28;20172;-90
2021/12/19 07:12:33;;;;;;;141.03;20.40;;;8.00;99.90;;;;;;4148463;28;20258;-90
2021/12/19 07:14:34;;;;;;;180.43;21.30;;;7.90;99.90;;;;;;4148480;28;20187;-88
2021/12/19 07:16:35;;;;;;;224.93;21.37;;;8.20;99.90;;;;;;4148497;28;20272;-89
2021/12/19 07:18:36;;;;;;;237.40;22.20;;;8.50;99.90;;;;;;4148558;28;20565;-89
2021/12/19 07:20:41;;;;;;;254.27;22.03;;;8.60;99.90;;;;;;4164835;28;20175;-89
2021/12/19 07:22:42;;;;;;;279.50;23.40;;;8.70;99.90;;;;;;4163866;28;20179;-90
2021/12/19 07:24:43;;;;;;;275.83;23.00;;;7.90;99.90;;;;;;4148427;28;20189;-89
2021/12/19 07:26:43;;;;;;;143.00;18.97;;;8.10;99.90;;;;;;4148574;28;20200;-89
2021/12/19 07:28:46;;;;;;;184.63;20.60;;;7.80;99.90;;;;;;4148662;28;20542;-89
2021/12/19 07:30:48;;;;;;;353.37;22.33;;;7.30;99.90;;;;;;4148322;28;20191;-89
2021/12/19 07:32:48;;;;;;;299.40;21.20;;;7.50;99.90;;;;;;4148712;28;20204;-89
2021/12/19 07:34:50;;;;;;;321.40;23.73;;;7.70;99.90;;;;;;4164765;28;20190;-90
2021/12/19 07:36:52;;;;;;;321.50;27.70;;;8.00;99.90;;;;;;4148439;28;20191;-89
2021/12/19 07:39:00;;;;;;;396.47;24.50;;;8.20;99.90;;;;;;4164863;28;20630;-90
2021/12/19 07:41:02;;;;;;;376.67;24.10;;;8.50;99.90;;;;;;4148623;28;20180;-89
2021/12/19 07:43:04;;;;;;;307.83;21.60;;;8.60;99.90;;;;;;4148387;28;20192;-89
2021/12/19 07:45:05;;;;;;;358.10;24.77;;;8.10;99.90;;;;;;4164565;28;20680;-90
2021/12/19 07:47:07;;;;;;;310.13;23.47;;;7.90;99.90;;;;;;4164386;28;20187;-89
2021/12/19 07:49:07;;;;;;;403.97;26.17;;;7.60;99.90;;;;;;4148302;28;20179;-89
2021/12/19 07:51:08;;;;;;;512.07;26.97;;;7.40;99.90;;;;;;4148200;28;20641;-89
2021/12/19 07:53:09;;;;;;;454.43;27.47;;;7.30;99.90;;;;;;4164323;28;20595;-89
2021/12/19 07:55:10;;;;;;;347.53;24.00;;;7.20;99.90;;;;;;4164526;28;20665;-89
2021/12/19 07:57:10;;;;;;;347.47;21.37;;;7.20;99.90;;;;;;4148180;28;20585;-89
2021/12/19 07:59:11;;;;;;;580.03;28.40;;;6.90;99.90;;;;;;4148167;28;20285;-89
2021/12/19 08:01:12;;;;;;;376.00;20.23;;;6.90;99.90;;;;;;4148186;28;20284;-89
2021/12/19 08:03:13;;;;;;;314.37;20.17;;;6.80;99.90;;;;;;4148085;28;20181;-89
2021/12/19 08:05:15;;;;;;;596.50;26.77;;;6.80;99.90;;;;;;4148035;28;20195;-89
2021/12/19 08:07:17;;;;;;;206.27;17.63;;;6.60;99.90;;;;;;4148005;28;20188;-89
2021/12/19 08:09:35;;;;;;;134.87;16.40;;;7.00;99.90;;;;;;4148132;28;20180;-89
2021/12/19 08:11:40;;;;;;;78.20;14.40;;;7.40;99.90;;;;;;4148172;28;20180;-90
2021/12/19 08:13:40;;;;;;;67.03;12.93;;;7.70;99.90;;;;;;4148166;28;20188;-89
2021/12/19 08:15:41;;;;;;;66.80;13.53;;;7.80;99.90;;;;;;4164017;28;20692;-88
2021/12/19 08:17:42;;;;;;;71.63;13.77;;;7.50;99.90;;;;;;4147982;28;20653;-89
2021/12/19 08:19:42;;;;;;;54.47;12.23;;;7.80;99.90;;;;;;4147876;28;20173;-90
2021/12/19 08:21:43;;;;;;;65.77;14.07;;;7.60;99.90;;;;;;4147827;28;20687;-90
2021/12/19 08:23:44;;;;;;;71.47;13.50;;;7.70;99.90;;;;;;4147946;28;20169;-90
2021/12/19 08:25:45;;;;;;;65.30;13.90;;;7.70;99.90;;;;;;4147771;28;20193;-90
2021/12/19 08:27:46;;;;;;;48.37;11.43;;;7.70;99.90;;;;;;4164425;28;20263;-90
2021/12/19 08:29:46;;;;;;;49.13;10.67;;;7.30;99.90;;;;;;4147712;28;20173;-89
2021/12/19 08:31:47;;;;;;;48.27;11.00;;;7.50;99.90;;;;;;4147533;28;20304;-89
2021/12/19 08:33:48;;;;;;;51.80;10.87;;;7.50;99.90;;;;;;4148775;28;20263;-90
2021/12/19 08:35:49;;;;;;;50.73;11.53;;;7.60;99.90;;;;;;4150833;28;20189;-90
2021/12/19 08:37:50;;;;;;;52.13;10.57;;;7.70;99.90;;;;;;4150704;28;20187;-90
2021/12/19 08:39:50;;;;;;;64.17;11.07;;;7.90;99.90;;;;;;4167336;28;20172;-90
2021/12/19 08:41:51;;;;;;;62.27;12.13;;;8.00;99.90;;;;;;4150856;28;20181;-89
2021/12/19 08:43:52;;;;;;;66.43;11.57;;;8.20;99.90;;;;;;4167254;28;20575;-90
2021/12/19 08:45:52;;;;;;;63.37;12.60;;;8.20;99.90;;;;;;4167028;28;20742;-91
2021/12/19 08:47:53;;;;;;;76.40;12.70;;;8.20;99.90;;;;;;4150781;28;20606;-90
2021/12/19 08:49:54;;;;;;;81.87;12.40;;;8.20;99.90;;;;;;4183638;28;20190;-91
2021/12/19 08:51:55;;;;;;;82.80;12.03;;;8.30;99.90;;;;;;4150782;28;20204;-91
2021/12/19 08:53:55;;;;;;;78.70;13.30;;;8.50;99.90;;;;;;4150811;28;20223;-90
2021/12/19 08:55:56;;;;;;;77.70;12.73;;;8.50;99.90;;;;;;4150956;28;20246;-91
2021/12/19 08:57:57;;;;;;;81.23;12.70;;;8.50;99.90;;;;;;4150661;28;20184;-90
2021/12/19 08:59:57;;;;;;;95.87;14.20;;;8.60;99.90;;;;;;4150918;28;20574;-91
2021/12/19 09:02:01;;;;;;;73.57;12.80;;;8.60;99.90;;;;;;4166935;28;20656;-90
2021/12/19 09:04:02;;;;;;;76.03;12.67;;;8.70;99.90;;;;;;4150689;28;20340;-90
2021/12/19 09:06:04;;;;;;;76.60;12.10;;;8.60;99.90;;;;;;4166486;28;20188;-91
2021/12/19 09:08:04;;;;;;;75.07;12.57;;;8.40;99.90;;;;;;4166145;28;20267;-89
2021/12/19 09:10:07;;;;;;;68.47;12.47;;;8.40;99.90;;;;;;4165344;28;20172;-90
2021/12/19 09:12:08;;;;;;;84.40;13.47;;;8.30;99.90;;;;;;4150178;28;20219;-89
2021/12/19 09:14:09;;;;;;;80.73;13.73;;;8.30;99.90;;;;;;4150473;28;20184;-89
2021/12/19 09:16:10;;;;;;;116.27;33.87;;;8.40;99.90;;;;;;4166600;28;20282;-90
2021/12/19 09:18:11;;;;;;;78.87;13.20;;;8.40;99.90;;;;;;4150130;28;20606;-89
2021/12/19 09:20:13;;;;;;;78.63;13.77;;;8.50;99.90;;;;;;4150369;28;20180;-90
2021/12/19 09:22:13;;;;;;;68.87;12.77;;;8.50;99.90;;;;;;4166615;28;20743;-89
2021/12/19 09:24:14;;;;;;;87.10;14.23;;;8.40;99.90;;;;;;4150244;28;20176;-89
2021/12/19 09:26:16;;;;;;;78.43;15.57;;;8.40;99.90;;;;;;4149309;28;20294;-89
2021/12/19 09:28:18;;;;;;;109.63;15.70;;;8.30;99.90;;;;;;4150115;28;20676;-89
2021/12/19 09:30:19;;;;;;;85.17;14.33;;;8.20;99.90;;;;;;4150212;28;20157;-89
2021/12/19 09:32:20;;;;;;;105.00;14.97;;;8.30;99.90;;;;;;4149920;28;20295;-89
2021/12/19 09:34:21;;;;;;;92.33;15.10;;;8.30;99.90;;;;;;4149903;28;20172;-90
2021/12/19 09:36:21;;;;;;;86.83;14.73;;;8.30;99.90;;;;;;4150060;28;20224;-89
2021/12/19 09:38:22;;;;;;;75.60;13.67;;;8.30;99.90;;;;;;4149910;28;20263;-89
2021/12/19 09:40:32;;;;;;;57.60;14.20;;;8.10;99.90;;;;;;4166344;28;20168;-89
2021/12/19 09:42:35;;;;;;;60.13;12.20;;;7.80;99.90;;;;;;4166291;28;20258;-90
2021/12/19 09:44:39;;;;;;;52.67;12.63;;;7.90;99.90;;;;;;4149369;28;20184;-89
2021/12/19 09:46:42;;;;;;;52.27;12.20;;;8.20;99.90;;;;;;4165722;28;20187;-89
2021/12/19 09:48:46;;;;;;;50.70;11.73;;;8.20;99.90;;;;;;4149980;28;20638;-90
2021/12/19 09:50:47;;;;;;;47.23;11.43;;;8.00;99.90;;;;;;4149814;28;20184;-89
2021/12/19 09:52:50;;;;;;;51.93;12.30;;;8.20;99.90;;;;;;4149570;28;20246;-89
2021/12/19 09:54:50;;;;;;;42.92;11.73;;;8.10;99.90;;;;;;4165879;28;20249;-89
2021/12/19 09:56:51;;;;;;;55.47;12.57;;;8.50;99.90;;;;;;4149678;28;20630;-89
2021/12/19 09:58:53;;;;;;;44.10;11.45;;;8.70;99.90;;;;;;4165887;28;20175;-90
2021/12/19 10:00:53;;;;;;;46.03;11.93;;;8.50;99.90;;;;;;4149429;28;20185;-89
2021/12/19 10:02:54;;;;;;;47.97;12.33;;;8.50;99.90;;;;;;4165841;28;20203;-90
2021/12/19 10:04:55;;;;;;;42.43;11.40;;;8.30;99.90;;;;;;4149449;28;20553;-88
2021/12/19 10:07:08;;;;;;;42.57;11.30;;;8.00;99.90;;;;;;4149530;28;20580;-89
2021/12/19 10:09:15;;;;;;;57.03;12.13;;;7.90;99.90;;;;;;4165725;28;20226;-89
2021/12/19 10:13:53;;;;;;;33.22;10.13;;;8.00;99.90;;;;;;4165790;28;20652;-90
2021/12/19 10:15:54;;;;;;;34.10;11.20;;;7.90;99.90;;;;;;4165856;28;20279;-89
2021/12/19 10:18:03;;;;;;;44.50;11.97;;;7.80;99.90;;;;;;4149605;28;20680;-89
2021/12/19 10:20:09;;;;;;;41.85;11.40;;;7.90;99.90;;;;;;4165810;28;20175;-89
2021/12/19 10:22:31;;;;;;;44.07;11.60;;;7.90;99.90;;;;;;4149402;28;20181;-90
2021/12/19 10:24:35;;;;;;;33.97;10.70;;;8.20;99.90;;;;;;4149144;28;20236;-89
2021/12/19 10:26:44;;;;;;;32.95;9.30;;;8.60;99.90;;;;;;4165478;28;20584;-89
2021/12/19 10:28:57;;;;;;;28.52;9.57;;;8.80;99.90;;;;;;4149054;28;20541;-89
2021/12/19 10:31:00;;;;;;;28.67;9.30;;;8.70;99.90;;;;;;4149203;28;20271;-89
2021/12/19 10:33:07;;;;;;;25.30;9.00;;;8.30;99.90;;;;;;4149233;28;20308;-90
2021/12/19 10:35:19;;;;;;;30.30;10.05;;;8.30;99.90;;;;;;4149180;28;20568;-88
2021/12/19 10:37:31;;;;;;;29.13;9.80;;;8.20;99.90;;;;;;4149235;28;20215;-89
2021/12/19 10:39:40;;;;;;;29.35;10.15;;;8.10;99.90;;;;;;4149046;28;20179;-90
2021/12/19 10:41:42;;;;;;;31.67;10.50;;;8.60;99.90;;;;;;4148975;28;20211;-89
2021/12/19 10:44:02;;;;;;;31.93;9.87;;;9.10;99.90;;;;;;4149223;28;20172;-91
2021/12/19 10:46:06;;;;;;;30.23;9.37;;;9.30;99.90;;;;;;4165103;28;20211;-89
2021/12/19 10:48:12;;;;;;;36.00;9.63;;;9.60;99.90;;;;;;4165214;28;20180;-88
2021/12/19 10:50:13;;;;;;;38.03;10.40;;;9.70;99.90;;;;;;4165264;28;20212;-89
2021/12/19 10:52:14;;;;;;;35.77;10.87;;;9.60;99.90;;;;;;4165281;28;20711;-89
2021/12/19 10:54:14;;;;;;;35.57;9.53;;;9.40;99.90;;;;;;4148743;28;20223;-89
2021/12/19 10:56:30;;;;;;;29.70;8.77;;;9.30;99.90;;;;;;4164924;28;20188;-89
2021/12/19 10:58:55;;;;;;;30.33;8.97;;;9.10;99.90;;;;;;4148821;28;20183;-89
2021/12/19 11:01:14;;;;;;;27.33;8.87;;;9.20;99.90;;;;;;4148534;28;20260;-89
2021/12/19 11:03:23;;;;;;;35.37;9.77;;;9.10;99.90;;;;;;4164928;28;20200;-89
2021/12/19 11:05:36;;;;;;;34.50;9.80;;;9.00;99.90;;;;;;4148560;28;20234;-90
2021/12/19 11:07:36;;;;;;;29.13;9.27;;;8.80;99.90;;;;;;4165169;28;20172;-90
2021/12/19 11:09:37;;;;;;;29.70;9.67;;;8.60;99.90;;;;;;4164881;28;20267;-91
2021/12/19 11:11:41;;;;;;;23.25;8.20;;;8.30;99.90;;;;;;4146989;28;20173;-89
2021/12/19 11:13:42;;;;;;;26.17;8.88;;;8.20;99.90;;;;;;4152967;28;20687;-91
2021/12/19 11:15:43;;;;;;;26.55;11.30;;;7.90;99.90;;;;;;4162564;28;20234;-90
2021/12/19 11:17:44;;;;;;;24.45;10.02;;;8.10;99.90;;;;;;4148489;28;20248;-90
2021/12/19 11:19:45;;;;;;;19.35;8.32;;;8.40;99.90;;;;;;4146400;28;20177;-89
2021/12/19 11:21:46;;;;;;;21.33;8.57;;;8.30;99.90;;;;;;4164469;28;20620;-90
2021/12/19 11:23:47;;;;;;;22.85;9.05;;;8.30;99.90;;;;;;4162072;28;20183;-90